Altro, Kentucky
Current Conditions -  °F | °C
As of 12:53 AM on Wednesday 26 Nov 2014 (Local Time) from KJKL Reporting Station
Clear Clear  
Wind Chill: 35°   Ceiling: Unl
Heat Index: 39°   Visibility: 10mi
Dew Point: 27°   Wind: 6mph
Humidity: 62%   Direction: 30°NNE
Pressure: 30.08"   Gusts: NA
Location:  37.532°N, 83.3068°W
Report Text: KJKL 260553Z AUTO 03005KT 10SM CLR 04/M03 A3008 RMK AO2 SLP186 T00391028 10078 20033 58012
Loading
Personal Weather Stations






























Interactive Weather Map New forecast layout! Learn more

10-Day Weather Forecast

Advertisements
Track Severe Weather on mobile